sensor_id;sensor_type;location;lat;lon;timestamp;pressure;altitude;pressure_sealevel;temperature;humidity
61488;BME280;47351;53.326;-6.298;2023-03-01T00:00:10;103543.02;;;6.18;71.42
61488;BME280;47351;53.326;-6.298;2023-03-01T00:02:58;103540.23;;;6.17;71.52
61488;BME280;47351;53.326;-6.298;2023-03-01T00:05:49;103533.51;;;6.17;71.55
61488;BME280;47351;53.326;-6.298;2023-03-01T00:08:58;103528.45;;;6.15;71.63
61488;BME280;47351;53.326;-6.298;2023-03-01T00:11:56;103527.20;;;6.15;71.73
61488;BME280;47351;53.326;-6.298;2023-03-01T00:14:44;103524.02;;;6.15;71.76
61488;BME280;47351;53.326;-6.298;2023-03-01T00:17:54;103517.67;;;6.14;71.86
61488;BME280;47351;53.326;-6.298;2023-03-01T00:21:02;103512.02;;;6.13;71.94
61488;BME280;47351;53.326;-6.298;2023-03-01T00:23:57;103507.27;;;6.13;72.08
61488;BME280;47351;53.326;-6.298;2023-03-01T00:27:06;103506.02;;;6.12;72.16
61488;BME280;47351;53.326;-6.298;2023-03-01T00:30:15;103508.88;;;6.11;72.25
61488;BME280;47351;53.326;-6.298;2023-03-01T00:33:07;103510.13;;;6.11;72.46
61488;BME280;47351;53.326;-6.298;2023-03-01T00:35:57;103512.59;;;6.12;72.60
61488;BME280;47351;53.326;-6.298;2023-03-01T00:39:07;103510.08;;;6.13;72.75
61488;BME280;47351;53.326;-6.298;2023-03-01T00:42:08;103506.46;;;6.15;72.98
61488;BME280;47351;53.326;-6.298;2023-03-01T00:45:08;103501.41;;;6.17;73.27
61488;BME280;47351;53.326;-6.298;2023-03-01T00:48:11;103497.68;;;6.21;73.62
61488;BME280;47351;53.326;-6.298;2023-03-01T00:51:20;103494.66;;;6.25;73.89
61488;BME280;47351;53.326;-6.298;2023-03-01T00:54:22;103490.42;;;6.30;74.10
61488;BME280;47351;53.326;-6.298;2023-03-01T00:57:23;103491.30;;;6.34;74.35
61488;BME280;47351;53.326;-6.298;2023-03-01T01:00:21;103488.64;;;6.39;74.27
61488;BME280;47351;53.326;-6.298;2023-03-01T01:03:30;103489.16;;;6.43;74.40
61488;BME280;47351;53.326;-6.298;2023-03-01T01:06:39;103492.33;;;6.48;74.35
61488;BME280;47351;53.326;-6.298;2023-03-01T01:09:34;103492.19;;;6.52;74.19
61488;BME280;47351;53.326;-6.298;2023-03-01T01:12:42;103492.55;;;6.56;73.80
61488;BME280;47351;53.326;-6.298;2023-03-01T01:15:51;103489.73;;;6.59;73.47
61488;BME280;47351;53.326;-6.298;2023-03-01T01:18:52;103488.92;;;6.62;73.10
61488;BME280;47351;53.326;-6.298;2023-03-01T01:21:41;103492.19;;;6.64;72.78
61488;BME280;47351;53.326;-6.298;2023-03-01T01:24:32;103488.89;;;6.66;72.56
61488;BME280;47351;53.326;-6.298;2023-03-01T01:27:31;103489.33;;;6.69;72.42
61488;BME280;47351;53.326;-6.298;2023-03-01T01:30:40;103491.89;;;6.71;72.27
61488;BME280;47351;53.326;-6.298;2023-03-01T01:33:48;103492.80;;;6.71;72.14
61488;BME280;47351;53.326;-6.298;2023-03-01T01:36:48;103490.34;;;6.70;72.10
61488;BME280;47351;53.326;-6.298;2023-03-01T01:39:57;103490.80;;;6.68;71.92
61488;BME280;47351;53.326;-6.298;2023-03-01T01:43:08;103490.71;;;6.66;71.78
61488;BME280;47351;53.326;-6.298;2023-03-01T01:46:13;103487.94;;;6.64;71.63
61488;BME280;47351;53.326;-6.298;2023-03-01T01:49:25;103480.21;;;6.62;71.38
61488;BME280;47351;53.326;-6.298;2023-03-01T01:52:18;103480.33;;;6.59;71.17
61488;BME280;47351;53.326;-6.298;2023-03-01T01:55:21;103479.52;;;6.57;71.02
61488;BME280;47351;53.326;-6.298;2023-03-01T01:58:28;103472.15;;;6.55;70.93
61488;BME280;47351;53.326;-6.298;2023-03-01T02:01:25;103467.94;;;6.54;70.67
61488;BME280;47351;53.326;-6.298;2023-03-01T02:04:33;103466.91;;;6.54;70.48
61488;BME280;47351;53.326;-6.298;2023-03-01T02:07:42;103455.77;;;6.53;70.44
61488;BME280;47351;53.326;-6.298;2023-03-01T02:10:51;103445.34;;;6.52;70.28
61488;BME280;47351;53.326;-6.298;2023-03-01T02:13:50;103438.45;;;6.51;70.23
61488;BME280;47351;53.326;-6.298;2023-03-01T02:16:42;103429.20;;;6.52;70.25
61488;BME280;47351;53.326;-6.298;2023-03-01T02:19:54;103424.93;;;6.52;70.16
61488;BME280;47351;53.326;-6.298;2023-03-01T02:22:46;103425.56;;;6.54;70.11
61488;BME280;47351;53.326;-6.298;2023-03-01T02:25:49;103419.99;;;6.55;70.03
61488;BME280;47351;53.326;-6.298;2023-03-01T02:28:51;103413.30;;;6.58;69.97
61488;BME280;47351;53.326;-6.298;2023-03-01T02:31:48;103411.12;;;6.59;70.04
61488;BME280;47351;53.326;-6.298;2023-03-01T02:34:57;103407.12;;;6.62;70.18
61488;BME280;47351;53.326;-6.298;2023-03-01T02:38:07;103406.66;;;6.64;70.26
61488;BME280;47351;53.326;-6.298;2023-03-01T02:41:17;103405.11;;;6.67;70.30
61488;BME280;47351;53.326;-6.298;2023-03-01T02:44:20;103403.41;;;6.69;70.37
61488;BME280;47351;53.326;-6.298;2023-03-01T02:47:28;103396.52;;;6.69;70.14
61488;BME280;47351;53.326;-6.298;2023-03-01T02:50:39;103390.50;;;6.69;70.18
61488;BME280;47351;53.326;-6.298;2023-03-01T02:53:48;103394.48;;;6.67;70.16
61488;BME280;47351;53.326;-6.298;2023-03-01T02:56:59;103389.06;;;6.65;70.26
61488;BME280;47351;53.326;-6.298;2023-03-01T03:00:02;103383.52;;;6.62;70.36
61488;BME280;47351;53.326;-6.298;2023-03-01T03:03:08;103382.54;;;6.60;70.60
61488;BME280;47351;53.326;-6.298;2023-03-01T03:06:09;103378.86;;;6.59;70.80
61488;BME280;47351;53.326;-6.298;2023-03-01T03:09:18;103380.17;;;6.57;70.92
61488;BME280;47351;53.326;-6.298;2023-03-01T03:12:16;103377.21;;;6.56;71.07
61488;BME280;47351;53.326;-6.298;2023-03-01T03:15:18;103371.06;;;6.54;71.14
61488;BME280;47351;53.326;-6.298;2023-03-01T03:18:21;103374.30;;;6.54;71.32
61488;BME280;47351;53.326;-6.298;2023-03-01T03:21:30;103375.71;;;6.54;71.39
61488;BME280;47351;53.326;-6.298;2023-03-01T03:24:38;103371.17;;;6.52;71.48
61488;BME280;47351;53.326;-6.298;2023-03-01T03:27:48;103369.92;;;6.52;71.56
61488;BME280;47351;53.326;-6.298;2023-03-01T03:30:48;103368.63;;;6.53;71.62
61488;BME280;47351;53.326;-6.298;2023-03-01T03:33:57;103366.95;;;6.55;71.73
61488;BME280;47351;53.326;-6.298;2023-03-01T03:37:06;103364.73;;;6.57;71.80
61488;BME280;47351;53.326;-6.298;2023-03-01T03:40:36;103361.58;;;6.60;71.70
61488;BME280;47351;53.326;-6.298;2023-03-01T03:43:44;103358.30;;;6.62;71.53
61488;BME280;47351;53.326;-6.298;2023-03-01T03:46:46;103357.88;;;6.63;71.42
61488;BME280;47351;53.326;-6.298;2023-03-01T03:49:54;103357.63;;;6.65;71.42
61488;BME280;47351;53.326;-6.298;2023-03-01T03:53:03;103356.74;;;6.65;71.34
61488;BME280;47351;53.326;-6.298;2023-03-01T03:56:12;103359.46;;;6.64;71.21
61488;BME280;47351;53.326;-6.298;2023-03-01T03:59:21;103360.43;;;6.62;71.21
61488;BME280;47351;53.326;-6.298;2023-03-01T04:02:17;103358.88;;;6.61;71.10
61488;BME280;47351;53.326;-6.298;2023-03-01T04:05:30;103356.66;;;6.59;71.10
61488;BME280;47351;53.326;-6.298;2023-03-01T04:08:37;103353.56;;;6.57;71.03
61488;BME280;47351;53.326;-6.298;2023-03-01T04:11:46;103349.59;;;6.55;71.05
61488;BME280;47351;53.326;-6.298;2023-03-01T04:14:54;103343.70;;;6.51;70.99
61488;BME280;47351;53.326;-6.298;2023-03-01T04:18:03;103343.81;;;6.48;70.79
61488;BME280;47351;53.326;-6.298;2023-03-01T04:21:12;103342.89;;;6.45;70.70
61488;BME280;47351;53.326;-6.298;2023-03-01T04:24:21;103342.63;;;6.43;70.63
61488;BME280;47351;53.326;-6.298;2023-03-01T04:27:30;103339.55;;;6.40;70.45
61488;BME280;47351;53.326;-6.298;2023-03-01T04:30:31;103345.50;;;6.38;70.35
61488;BME280;47351;53.326;-6.298;2023-03-01T04:33:44;103343.30;;;6.36;70.31
61488;BME280;47351;53.326;-6.298;2023-03-01T04:36:53;103341.78;;;6.34;70.17
61488;BME280;47351;53.326;-6.298;2023-03-01T04:40:02;103338.14;;;6.32;70.04
61488;BME280;47351;53.326;-6.298;2023-03-01T04:43:12;103335.35;;;6.31;70.13
61488;BME280;47351;53.326;-6.298;2023-03-01T04:46:22;103333.13;;;6.33;70.16
61488;BME280;47351;53.326;-6.298;2023-03-01T04:49:31;103331.41;;;6.36;70.28
61488;BME280;47351;53.326;-6.298;2023-03-01T04:52:40;103328.98;;;6.39;70.31
61488;BME280;47351;53.326;-6.298;2023-03-01T04:55:38;103330.95;;;6.42;70.43
61488;BME280;47351;53.326;-6.298;2023-03-01T04:58:46;103330.30;;;6.45;70.32
61488;BME280;47351;53.326;-6.298;2023-03-01T05:01:55;103329.20;;;6.46;70.42
61488;BME280;47351;53.326;-6.298;2023-03-01T05:04:51;103330.08;;;6.46;70.48
61488;BME280;47351;53.326;-6.298;2023-03-01T05:07:59;103328.49;;;6.45;70.65
61488;BME280;47351;53.326;-6.298;2023-03-01T05:11:08;103327.34;;;6.44;70.68
61488;BME280;47351;53.326;-6.298;2023-03-01T05:14:17;103322.23;;;6.43;70.71
61488;BME280;47351;53.326;-6.298;2023-03-01T05:17:05;103319.27;;;6.42;70.64
61488;BME280;47351;53.326;-6.298;2023-03-01T05:20:14;103320.61;;;6.39;70.55
61488;BME280;47351;53.326;-6.298;2023-03-01T05:23:15;103320.20;;;6.37;70.59
61488;BME280;47351;53.326;-6.298;2023-03-01T05:26:24;103319.04;;;6.35;70.61
61488;BME280;47351;53.326;-6.298;2023-03-01T05:29:39;103320.71;;;6.33;70.66
61488;BME280;47351;53.326;-6.298;2023-03-01T05:32:49;103314.62;;;6.31;70.76
61488;BME280;47351;53.326;-6.298;2023-03-01T05:35:54;103313.27;;;6.29;70.88
61488;BME280;47351;53.326;-6.298;2023-03-01T05:38:51;103310.84;;;6.28;71.04
61488;BME280;47351;53.326;-6.298;2023-03-01T05:42:04;103306.33;;;6.26;71.16
61488;BME280;47351;53.326;-6.298;2023-03-01T05:44:55;103306.70;;;6.25;71.23
61488;BME280;47351;53.326;-6.298;2023-03-01T05:47:57;103311.88;;;6.24;71.41
61488;BME280;47351;53.326;-6.298;2023-03-01T05:50:48;103313.00;;;6.23;71.47
61488;BME280;47351;53.326;-6.298;2023-03-01T05:53:51;103311.06;;;6.22;71.68
61488;BME280;47351;53.326;-6.298;2023-03-01T05:56:47;103316.02;;;6.22;71.94
61488;BME280;47351;53.326;-6.298;2023-03-01T05:59:57;103320.84;;;6.22;72.53
61488;BME280;47351;53.326;-6.298;2023-03-01T06:03:06;103328.39;;;6.20;72.99
61488;BME280;47351;53.326;-6.298;2023-03-01T06:06:15;103332.88;;;6.18;73.34
61488;BME280;47351;53.326;-6.298;2023-03-01T06:09:16;103335.06;;;6.17;73.80
61488;BME280;47351;53.326;-6.298;2023-03-01T06:12:24;103339.14;;;6.17;74.22
61488;BME280;47351;53.326;-6.298;2023-03-01T06:15:24;103340.80;;;6.15;74.51
61488;BME280;47351;53.326;-6.298;2023-03-01T06:18:25;103348.00;;;6.13;74.90
61488;BME280;47351;53.326;-6.298;2023-03-01T06:21:33;103348.43;;;6.11;75.32
61488;BME280;47351;53.326;-6.298;2023-03-01T06:24:27;103348.58;;;6.12;75.55
61488;BME280;47351;53.326;-6.298;2023-03-01T06:27:36;103348.77;;;6.12;75.65
61488;BME280;47351;53.326;-6.298;2023-03-01T06:30:45;103350.17;;;6.12;75.80
61488;BME280;47351;53.326;-6.298;2023-03-01T06:33:49;103351.14;;;6.14;75.91
61488;BME280;47351;53.326;-6.298;2023-03-01T06:36:59;103351.69;;;6.14;75.67
61488;BME280;47351;53.326;-6.298;2023-03-01T06:40:12;103350.77;;;6.14;75.52
61488;BME280;47351;53.326;-6.298;2023-03-01T06:43:02;103342.09;;;6.15;75.35
61488;BME280;47351;53.326;-6.298;2023-03-01T06:46:06;103340.65;;;6.15;75.19
61488;BME280;47351;53.326;-6.298;2023-03-01T06:49:15;103338.39;;;6.14;75.07
61488;BME280;47351;53.326;-6.298;2023-03-01T06:52:17;103334.21;;;6.12;75.11
61488;BME280;47351;53.326;-6.298;2023-03-01T06:55:09;103334.64;;;6.10;75.19
61488;BME280;47351;53.326;-6.298;2023-03-01T06:58:12;103336.16;;;6.08;75.27
61488;BME280;47351;53.326;-6.298;2023-03-01T07:01:08;103337.69;;;6.05;75.37
61488;BME280;47351;53.326;-6.298;2023-03-01T07:04:07;103338.38;;;6.01;75.59
61488;BME280;47351;53.326;-6.298;2023-03-01T07:07:16;103344.43;;;5.96;75.86
61488;BME280;47351;53.326;-6.298;2023-03-01T07:10:25;103344.26;;;5.91;76.24
61488;BME280;47351;53.326;-6.298;2023-03-01T07:13:14;103344.17;;;5.89;76.60
61488;BME280;47351;53.326;-6.298;2023-03-01T07:16:03;103343.50;;;5.88;76.95
61488;BME280;47351;53.326;-6.298;2023-03-01T07:19:06;103347.36;;;5.89;77.36
61488;BME280;47351;53.326;-6.298;2023-03-01T07:22:06;103349.95;;;5.91;77.46
61488;BME280;47351;53.326;-6.298;2023-03-01T07:24:58;103352.20;;;5.92;77.35
61488;BME280;47351;53.326;-6.298;2023-03-01T07:27:53;103351.60;;;5.94;77.17
61488;BME280;47351;53.326;-6.298;2023-03-01T07:30:54;103356.08;;;5.97;77.02
61488;BME280;47351;53.326;-6.298;2023-03-01T07:33:58;103353.52;;;5.99;76.83
61488;BME280;47351;53.326;-6.298;2023-03-01T07:37:07;103351.38;;;6.00;76.81
61488;BME280;47351;53.326;-6.298;2023-03-01T07:40:15;103351.68;;;6.01;76.74
61488;BME280;47351;53.326;-6.298;2023-03-01T07:43:09;103350.08;;;6.01;76.71
61488;BME280;47351;53.326;-6.298;2023-03-01T07:46:04;103349.85;;;6.02;76.76
61488;BME280;47351;53.326;-6.298;2023-03-01T07:49:02;103351.77;;;6.03;76.49
61488;BME280;47351;53.326;-6.298;2023-03-01T07:52:10;103346.42;;;6.03;76.32
61488;BME280;47351;53.326;-6.298;2023-03-01T07:55:00;103345.17;;;6.04;76.12
61488;BME280;47351;53.326;-6.298;2023-03-01T07:57:48;103343.89;;;6.06;76.05
61488;BME280;47351;53.326;-6.298;2023-03-01T08:00:45;103340.45;;;6.07;75.90
61488;BME280;47351;53.326;-6.298;2023-03-01T08:03:37;103346.96;;;6.08;75.76
61488;BME280;47351;53.326;-6.298;2023-03-01T08:06:44;103345.33;;;6.09;75.59
61488;BME280;47351;53.326;-6.298;2023-03-01T08:09:35;103344.91;;;6.11;75.44
61488;BME280;47351;53.326;-6.298;2023-03-01T08:12:44;103348.52;;;6.13;75.25
61488;BME280;47351;53.326;-6.298;2023-03-01T08:15:41;103348.04;;;6.16;75.16
61488;BME280;47351;53.326;-6.298;2023-03-01T08:18:33;103349.31;;;6.19;75.01
61488;BME280;47351;53.326;-6.298;2023-03-01T08:21:25;103351.70;;;6.22;74.76
61488;BME280;47351;53.326;-6.298;2023-03-01T08:24:23;103352.84;;;6.24;74.52
61488;BME280;47351;53.326;-6.298;2023-03-01T08:27:22;103350.90;;;6.28;74.26
61488;BME280;47351;53.326;-6.298;2023-03-01T08:30:32;103352.45;;;6.33;73.94
61488;BME280;47351;53.326;-6.298;2023-03-01T08:33:26;103350.20;;;6.40;73.85
61488;BME280;47351;53.326;-6.298;2023-03-01T08:36:36;103347.41;;;6.47;73.53
61488;BME280;47351;53.326;-6.298;2023-03-01T08:39:46;103346.16;;;6.56;73.08
61488;BME280;47351;53.326;-6.298;2023-03-01T08:42:34;103345.85;;;6.63;72.98
61488;BME280;47351;53.326;-6.298;2023-03-01T08:45:24;103346.41;;;6.70;72.78
61488;BME280;47351;53.326;-6.298;2023-03-01T08:48:12;103348.54;;;6.74;72.63
61488;BME280;47351;53.326;-6.298;2023-03-01T08:51:20;103353.03;;;6.73;72.23
61488;BME280;47351;53.326;-6.298;2023-03-01T08:54:30;103358.21;;;6.68;72.20
61488;BME280;47351;53.326;-6.298;2023-03-01T08:57:26;103359.46;;;6.64;72.24
61488;BME280;47351;53.326;-6.298;2023-03-01T09:00:18;103367.48;;;6.59;72.37
61488;BME280;47351;53.326;-6.298;2023-03-01T09:03:10;103367.02;;;6.49;72.33
61488;BME280;47351;53.326;-6.298;2023-03-01T09:06:00;103366.02;;;6.43;72.62
61488;BME280;47351;53.326;-6.298;2023-03-01T09:09:00;103366.06;;;6.39;72.87
61488;BME280;47351;53.326;-6.298;2023-03-01T09:12:09;103370.05;;;6.36;73.24
61488;BME280;47351;53.326;-6.298;2023-03-01T09:15:01;103368.55;;;6.34;73.46
61488;BME280;47351;53.326;-6.298;2023-03-01T09:18:10;103369.46;;;6.34;73.96
61488;BME280;47351;53.326;-6.298;2023-03-01T09:21:19;103372.40;;;6.35;74.48
61488;BME280;47351;53.326;-6.298;2023-03-01T09:24:36;103365.27;;;6.40;75.14
61488;BME280;47351;53.326;-6.298;2023-03-01T09:27:24;103366.05;;;6.47;75.77
61488;BME280;47351;53.326;-6.298;2023-03-01T09:30:16;103361.86;;;6.54;76.03
61488;BME280;47351;53.326;-6.298;2023-03-01T09:33:25;103361.71;;;6.53;75.49
61488;BME280;47351;53.326;-6.298;2023-03-01T09:36:34;103365.45;;;6.53;75.12
61488;BME280;47351;53.326;-6.298;2023-03-01T09:39:25;103364.65;;;6.55;74.68
61488;BME280;47351;53.326;-6.298;2023-03-01T09:42:16;103362.59;;;6.62;74.45
61488;BME280;47351;53.326;-6.298;2023-03-01T09:45:05;103361.29;;;6.71;74.11
61488;BME280;47351;53.326;-6.298;2023-03-01T09:47:55;103359.44;;;6.76;73.54
61488;BME280;47351;53.326;-6.298;2023-03-01T09:50:43;103357.69;;;6.80;72.90
61488;BME280;47351;53.326;-6.298;2023-03-01T09:53:41;103361.71;;;6.93;72.71
61488;BME280;47351;53.326;-6.298;2023-03-01T09:56:32;103357.49;;;7.19;72.44
61488;BME280;47351;53.326;-6.298;2023-03-01T09:59:23;103353.52;;;7.51;71.94
61488;BME280;47351;53.326;-6.298;2023-03-01T10:02:21;103352.59;;;7.74;71.05
61488;BME280;47351;53.326;-6.298;2023-03-01T10:05:25;103354.88;;;7.89;70.62
61488;BME280;47351;53.326;-6.298;2023-03-01T10:08:25;103354.80;;;7.98;70.43
61488;BME280;47351;53.326;-6.298;2023-03-01T10:11:37;103351.92;;;8.05;70.71
61488;BME280;47351;53.326;-6.298;2023-03-01T10:14:42;103350.94;;;8.18;70.63
61488;BME280;47351;53.326;-6.298;2023-03-01T10:17:41;103351.54;;;8.34;70.01
61488;BME280;47351;53.326;-6.298;2023-03-01T10:20:33;103346.79;;;8.54;69.43
61488;BME280;47351;53.326;-6.298;2023-03-01T10:23:25;103343.17;;;8.75;68.28
61488;BME280;47351;53.326;-6.298;2023-03-01T10:26:22;103343.58;;;8.94;67.54
61488;BME280;47351;53.326;-6.298;2023-03-01T10:29:14;103344.50;;;9.04;67.54
61488;BME280;47351;53.326;-6.298;2023-03-01T10:32:03;103344.97;;;8.98;67.32
61488;BME280;47351;53.326;-6.298;2023-03-01T10:34:57;103338.06;;;8.94;66.97
61488;BME280;47351;53.326;-6.298;2023-03-01T10:37:58;103328.41;;;9.11;66.20
61488;BME280;47351;53.326;-6.298;2023-03-01T10:40:53;103327.62;;;10.15;64.55
61488;BME280;47351;53.326;-6.298;2023-03-01T10:43:44;103313.69;;;12.78;62.39
61488;BME280;47351;53.326;-6.298;2023-03-01T10:46:33;103306.29;;;14.78;59.72
61488;BME280;47351;53.326;-6.298;2023-03-01T10:49:22;103297.79;;;15.60;56.77
61488;BME280;47351;53.326;-6.298;2023-03-01T10:52:17;103295.65;;;15.23;56.16
61488;BME280;47351;53.326;-6.298;2023-03-01T10:55:19;103298.14;;;14.88;55.57
61488;BME280;47351;53.326;-6.298;2023-03-01T10:58:18;103299.77;;;14.49;54.50
61488;BME280;47351;53.326;-6.298;2023-03-01T11:01:24;103300.96;;;14.33;55.10
61488;BME280;47351;53.326;-6.298;2023-03-01T11:04:13;103300.14;;;14.28;54.72
61488;BME280;47351;53.326;-6.298;2023-03-01T11:07:02;103299.81;;;13.92;53.90
61488;BME280;47351;53.326;-6.298;2023-03-01T11:09:50;103303.88;;;13.52;54.05
61488;BME280;47351;53.326;-6.298;2023-03-01T11:12:38;103293.13;;;13.74;52.78
61488;BME280;47351;53.326;-6.298;2023-03-01T11:15:27;103292.14;;;13.61;52.74
61488;BME280;47351;53.326;-6.298;2023-03-01T11:18:19;103287.38;;;13.36;53.47
61488;BME280;47351;53.326;-6.298;2023-03-01T11:21:08;103278.56;;;13.19;53.62
61488;BME280;47351;53.326;-6.298;2023-03-01T11:24:00;103279.93;;;13.12;52.65
61488;BME280;47351;53.326;-6.298;2023-03-01T11:26:51;103281.45;;;14.35;51.70
61488;BME280;47351;53.326;-6.298;2023-03-01T11:29:41;103274.75;;;14.77;50.53
61488;BME280;47351;53.326;-6.298;2023-03-01T11:32:38;103275.24;;;14.62;51.46
61488;BME280;47351;53.326;-6.298;2023-03-01T11:35:28;103278.25;;;14.37;51.49
61488;BME280;47351;53.326;-6.298;2023-03-01T11:38:19;103276.03;;;14.14;51.40
61488;BME280;47351;53.326;-6.298;2023-03-01T11:41:12;103270.69;;;14.03;50.78
61488;BME280;47351;53.326;-6.298;2023-03-01T11:44:03;103269.96;;;13.65;51.34
61488;BME280;47351;53.326;-6.298;2023-03-01T11:47:03;103271.02;;;12.99;52.22
61488;BME280;47351;53.326;-6.298;2023-03-01T11:49:55;103272.62;;;12.34;52.46
61488;BME280;47351;53.326;-6.298;2023-03-01T11:52:53;103264.88;;;12.27;53.23
61488;BME280;47351;53.326;-6.298;2023-03-01T11:59:06;103248.07;;;14.00;52.06
61488;BME280;47351;53.326;-6.298;2023-03-01T12:02:14;103238.17;;;15.28;50.08
61488;BME280;47351;53.326;-6.298;2023-03-01T12:05:20;103235.88;;;16.68;48.69
61488;BME280;47351;53.326;-6.298;2023-03-01T12:08:11;103223.90;;;19.86;46.00
61488;BME280;47351;53.326;-6.298;2023-03-01T12:11:19;103214.90;;;22.82;42.65
61488;BME280;47351;53.326;-6.298;2023-03-01T12:14:25;103217.27;;;23.21;40.33
61488;BME280;47351;53.326;-6.298;2023-03-01T12:20:30;103201.04;;;24.71;37.76
61488;BME280;47351;53.326;-6.298;2023-03-01T12:23:34;103194.86;;;24.94;36.41
61488;BME280;47351;53.326;-6.298;2023-03-01T12:26:28;103188.33;;;24.94;35.10
61488;BME280;47351;53.326;-6.298;2023-03-01T12:29:24;103184.06;;;25.49;34.96
61488;BME280;47351;53.326;-6.298;2023-03-01T12:32:18;103170.44;;;26.61;33.62
61488;BME280;47351;53.326;-6.298;2023-03-01T12:35:27;103162.98;;;26.69;31.79
61488;BME280;47351;53.326;-6.298;2023-03-01T12:38:25;103160.10;;;26.81;31.52
61488;BME280;47351;53.326;-6.298;2023-03-01T12:41:33;103150.52;;;27.97;30.70
61488;BME280;47351;53.326;-6.298;2023-03-01T12:44:29;103150.87;;;26.50;30.52
61488;BME280;47351;53.326;-6.298;2023-03-01T12:47:29;103143.20;;;26.46;30.99
61488;BME280;47351;53.326;-6.298;2023-03-01T12:50:23;103129.70;;;27.66;30.11
61488;BME280;47351;53.326;-6.298;2023-03-01T12:53:16;103124.33;;;27.76;30.32
61488;BME280;47351;53.326;-6.298;2023-03-01T12:56:10;103117.60;;;28.57;29.37
61488;BME280;47351;53.326;-6.298;2023-03-01T12:59:01;103118.01;;;27.18;29.05
61488;BME280;47351;53.326;-6.298;2023-03-01T13:01:53;103123.08;;;26.21;29.70
61488;BME280;47351;53.326;-6.298;2023-03-01T13:04:47;103121.20;;;24.73;30.70
61488;BME280;47351;53.326;-6.298;2023-03-01T13:07:41;103115.02;;;23.08;31.69
61488;BME280;47351;53.326;-6.298;2023-03-01T13:10:33;103113.70;;;21.95;33.02
61488;BME280;47351;53.326;-6.298;2023-03-01T13:13:23;103100.15;;;23.15;31.80
61488;BME280;47351;53.326;-6.298;2023-03-01T13:16:21;103098.70;;;22.23;32.27
61488;BME280;47351;53.326;-6.298;2023-03-01T13:19:12;103084.00;;;23.31;31.87
61488;BME280;47351;53.326;-6.298;2023-03-01T13:22:24;103085.20;;;23.48;32.08
61488;BME280;47351;53.326;-6.298;2023-03-01T13:25:15;103083.23;;;22.51;31.77
61488;BME280;47351;53.326;-6.298;2023-03-01T13:37:22;103076.89;;;20.60;33.61
61488;BME280;47351;53.326;-6.298;2023-03-01T13:46:21;103056.10;;;22.62;31.90
61488;BME280;47351;53.326;-6.298;2023-03-01T13:49:11;103053.70;;;24.34;30.23
61488;BME280;47351;53.326;-6.298;2023-03-01T13:52:01;103060.30;;;24.22;30.34
61488;BME280;47351;53.326;-6.298;2023-03-01T13:54:50;103065.44;;;22.29;30.91
61488;BME280;47351;53.326;-6.298;2023-03-01T13:57:38;103079.27;;;20.19;33.03
61488;BME280;47351;53.326;-6.298;2023-03-01T14:00:28;103081.91;;;18.46;34.85
61488;BME280;47351;53.326;-6.298;2023-03-01T14:03:17;103087.10;;;17.08;36.59
61488;BME280;47351;53.326;-6.298;2023-03-01T14:06:06;103083.71;;;15.96;38.30
61488;BME280;47351;53.326;-6.298;2023-03-01T14:09:04;103083.36;;;15.20;39.87
61488;BME280;47351;53.326;-6.298;2023-03-01T14:11:56;103071.21;;;16.64;39.11
61488;BME280;47351;53.326;-6.298;2023-03-01T14:14:48;103059.08;;;18.27;37.10
61488;BME280;47351;53.326;-6.298;2023-03-01T14:20:54;103060.98;;;16.18;39.19
61488;BME280;47351;53.326;-6.298;2023-03-01T14:23:42;103062.16;;;15.18;40.52
61488;BME280;47351;53.326;-6.298;2023-03-01T14:26:30;103065.53;;;14.28;41.83
61488;BME280;47351;53.326;-6.298;2023-03-01T14:29:25;103067.42;;;13.69;42.83
61488;BME280;47351;53.326;-6.298;2023-03-01T14:32:17;103062.61;;;13.38;43.44
61488;BME280;47351;53.326;-6.298;2023-03-01T14:35:18;103060.75;;;13.16;43.44
61488;BME280;47351;53.326;-6.298;2023-03-01T14:38:19;103057.71;;;13.27;43.68
61488;BME280;47351;53.326;-6.298;2023-03-01T14:41:08;103051.79;;;13.69;44.07
61488;BME280;47351;53.326;-6.298;2023-03-01T14:43:59;103049.63;;;13.89;43.49
61488;BME280;47351;53.326;-6.298;2023-03-01T14:46:51;103046.38;;;13.85;43.21
61488;BME280;47351;53.326;-6.298;2023-03-01T14:49:39;103045.98;;;13.70;43.19
61488;BME280;47351;53.326;-6.298;2023-03-01T14:52:31;103042.39;;;13.52;43.09
61488;BME280;47351;53.326;-6.298;2023-03-01T14:55:22;103038.10;;;13.19;43.14
61488;BME280;47351;53.326;-6.298;2023-03-01T14:58:14;103040.48;;;12.90;43.59
61488;BME280;47351;53.326;-6.298;2023-03-01T15:01:03;103043.27;;;12.60;43.89
61488;BME280;47351;53.326;-6.298;2023-03-01T15:03:52;103042.02;;;12.50;44.12
61488;BME280;47351;53.326;-6.298;2023-03-01T15:06:41;103033.21;;;12.41;44.62
61488;BME280;47351;53.326;-6.298;2023-03-01T15:09:30;103024.71;;;12.13;45.70
61488;BME280;47351;53.326;-6.298;2023-03-01T15:12:36;103022.59;;;11.80;46.73
61488;BME280;47351;53.326;-6.298;2023-03-01T15:15:34;103020.63;;;11.65;47.65
61488;BME280;47351;53.326;-6.298;2023-03-01T15:18:26;103022.40;;;12.15;47.65
61488;BME280;47351;53.326;-6.298;2023-03-01T15:21:16;103018.02;;;12.55;47.44
61488;BME280;47351;53.326;-6.298;2023-03-01T15:24:06;103014.14;;;12.87;47.00
61488;BME280;47351;53.326;-6.298;2023-03-01T15:27:01;103014.30;;;12.71;46.88
61488;BME280;47351;53.326;-6.298;2023-03-01T15:29:54;103012.86;;;12.62;46.84
61488;BME280;47351;53.326;-6.298;2023-03-01T15:32:44;103007.40;;;12.53;47.01
61488;BME280;47351;53.326;-6.298;2023-03-01T15:35:38;103003.70;;;12.57;47.10
61488;BME280;47351;53.326;-6.298;2023-03-01T15:38:29;102996.75;;;12.66;46.84
61488;BME280;47351;53.326;-6.298;2023-03-01T15:41:24;102989.17;;;12.69;46.67
61488;BME280;47351;53.326;-6.298;2023-03-01T15:44:16;102999.90;;;12.50;46.27
61488;BME280;47351;53.326;-6.298;2023-03-01T15:47:08;102991.63;;;12.34;46.66
61488;BME280;47351;53.326;-6.298;2023-03-01T15:50:14;102986.83;;;12.17;46.93
61488;BME280;47351;53.326;-6.298;2023-03-01T15:53:05;102981.67;;;11.92;47.75
61488;BME280;47351;53.326;-6.298;2023-03-01T15:55:54;102978.95;;;11.59;48.18
61488;BME280;47351;53.326;-6.298;2023-03-01T15:58:43;102979.38;;;11.20;48.78